Pleasant Grove, Minnesota
Current Conditions -  °F | °C
As of 1:54 PM on Friday 19 Dec 2014 (Local Time) from KRST Reporting Station
Overcast Overcast  
Wind Chill: 19°   Ceiling: 1500
Heat Index: 28°   Visibility: 8mi
Dew Point: 21°   Wind: 9mph
Humidity: 75%   Direction: 150°SSE
Pressure: 30.2"   Gusts: NA
Location:  43.8884°N, 92.383°W
Report Text: KRST 191954Z 15008KT 8SM OVC015 M02/M06 A3020 RMK AO2 SLP248 T10221061
Loading
Personal Weather Stations






























Interactive Weather Map New forecast layout! Learn more

10-Day Weather Forecast

Advertisements
Track Severe Weather on mobile